sensor_id;sensor_type;location;lat;lon;timestamp;pressure;altitude;pressure_sealevel;temperature;humidity
55263;BME280;41125;48.752;9.168;2023-02-23T00:00:16;96521.94;;;8.00;76.68
55263;BME280;41125;48.752;9.168;2023-02-23T00:00:51;96528.94;;;8.01;76.88
55263;BME280;41125;48.752;9.168;2023-02-23T00:01:29;96532.75;;;8.00;76.69
55263;BME280;41125;48.752;9.168;2023-02-23T00:02:01;96531.13;;;7.99;76.69
55263;BME280;41125;48.752;9.168;2023-02-23T00:02:35;96524.13;;;7.98;76.61
55263;BME280;41125;48.752;9.168;2023-02-23T00:03:06;96523.84;;;8.00;76.90
55263;BME280;41125;48.752;9.168;2023-02-23T00:03:38;96527.34;;;8.00;76.84
55263;BME280;41125;48.752;9.168;2023-02-23T00:04:10;96522.22;;;7.99;77.07
55263;BME280;41125;48.752;9.168;2023-02-23T00:04:42;96526.81;;;7.98;77.17
55263;BME280;41125;48.752;9.168;2023-02-23T00:05:14;96529.53;;;7.98;77.21
55263;BME280;41125;48.752;9.168;2023-02-23T00:05:46;96526.31;;;7.96;77.10
55263;BME280;41125;48.752;9.168;2023-02-23T00:06:18;96516.63;;;7.95;77.29
55263;BME280;41125;48.752;9.168;2023-02-23T00:06:50;96524.72;;;7.95;77.52
55263;BME280;41125;48.752;9.168;2023-02-23T00:07:22;96523.09;;;7.94;77.12
55263;BME280;41125;48.752;9.168;2023-02-23T00:07:53;96526.63;;;7.95;77.50
55263;BME280;41125;48.752;9.168;2023-02-23T00:08:25;96521.50;;;7.93;77.12
55263;BME280;41125;48.752;9.168;2023-02-23T00:08:58;96526.91;;;7.93;77.86
55263;BME280;41125;48.752;9.168;2023-02-23T00:09:31;96529.31;;;7.95;77.52
55263;BME280;41125;48.752;9.168;2023-02-23T00:10:09;96527.69;;;7.94;77.92
55263;BME280;41125;48.752;9.168;2023-02-23T00:10:42;96531.22;;;7.94;77.87
55263;BME280;41125;48.752;9.168;2023-02-23T00:11:15;96527.69;;;7.94;78.12
55263;BME280;41125;48.752;9.168;2023-02-23T00:11:47;96526.91;;;7.93;78.24
55263;BME280;41125;48.752;9.168;2023-02-23T00:12:19;96524.72;;;7.95;78.52
55263;BME280;41125;48.752;9.168;2023-02-23T00:12:51;96522.00;;;7.95;78.68
55263;BME280;41125;48.752;9.168;2023-02-23T00:13:22;96522.00;;;7.95;78.87
55263;BME280;41125;48.752;9.168;2023-02-23T00:13:54;96523.63;;;7.96;78.65
55263;BME280;41125;48.752;9.168;2023-02-23T00:14:28;96521.72;;;7.97;78.77
55263;BME280;41125;48.752;9.168;2023-02-23T00:15:00;96529.53;;;7.98;78.91
55263;BME280;41125;48.752;9.168;2023-02-23T00:15:32;96528.44;;;7.99;78.98
55263;BME280;41125;48.752;9.168;2023-02-23T00:16:11;96520.31;;;7.99;79.01
55263;BME280;41125;48.752;9.168;2023-02-23T00:16:47;96524.13;;;7.98;79.16
55263;BME280;41125;48.752;9.168;2023-02-23T00:17:18;96515.53;;;7.96;79.13
55263;BME280;41125;48.752;9.168;2023-02-23T00:17:49;96522.50;;;7.97;79.08
55263;BME280;41125;48.752;9.168;2023-02-23T00:18:25;96523.31;;;7.98;79.02
55263;BME280;41125;48.752;9.168;2023-02-23T00:18:59;96518.72;;;7.98;79.36
55263;BME280;41125;48.752;9.168;2023-02-23T00:19:32;96522.50;;;7.97;78.61
55263;BME280;41125;48.752;9.168;2023-02-23T00:20:09;96520.59;;;7.98;78.75
55263;BME280;41125;48.752;9.168;2023-02-23T00:20:41;96524.13;;;7.98;78.81
55263;BME280;41125;48.752;9.168;2023-02-23T00:21:20;96521.41;;;7.98;78.78
55263;BME280;41125;48.752;9.168;2023-02-23T00:21:55;96518.72;;;7.98;78.62
55263;BME280;41125;48.752;9.168;2023-02-23T00:22:28;96519.53;;;7.99;78.51
55263;BME280;41125;48.752;9.168;2023-02-23T00:22:59;96525.72;;;7.99;78.75
55263;BME280;41125;48.752;9.168;2023-02-23T00:23:31;96519.81;;;7.97;79.04
55263;BME280;41125;48.752;9.168;2023-02-23T00:24:07;96516.31;;;7.97;78.66
55263;BME280;41125;48.752;9.168;2023-02-23T00:24:39;96513.31;;;7.98;79.30
55263;BME280;41125;48.752;9.168;2023-02-23T00:25:12;96524.13;;;7.98;78.88
55263;BME280;41125;48.752;9.168;2023-02-23T00:25:45;96516.00;;;7.98;78.73
55263;BME280;41125;48.752;9.168;2023-02-23T00:26:17;96520.31;;;7.99;79.59
55263;BME280;41125;48.752;9.168;2023-02-23T00:26:50;96521.72;;;7.97;79.74
55263;BME280;41125;48.752;9.168;2023-02-23T00:27:21;96523.63;;;7.96;79.68
55263;BME280;41125;48.752;9.168;2023-02-23T00:27:53;96522.00;;;7.95;79.69
55263;BME280;41125;48.752;9.168;2023-02-23T00:28:24;96525.81;;;7.94;79.75
55263;BME280;41125;48.752;9.168;2023-02-23T00:28:56;96523.09;;;7.94;79.80
55263;BME280;41125;48.752;9.168;2023-02-23T00:29:28;96527.69;;;7.94;79.83
55263;BME280;41125;48.752;9.168;2023-02-23T00:30:02;96522.28;;;7.94;80.13
55263;BME280;41125;48.752;9.168;2023-02-23T00:30:33;96527.69;;;7.94;80.29
55263;BME280;41125;48.752;9.168;2023-02-23T00:31:07;96525.28;;;7.92;80.58
55263;BME280;41125;48.752;9.168;2023-02-23T00:31:38;96531.78;;;7.91;80.99
55263;BME280;41125;48.752;9.168;2023-02-23T00:32:10;96527.47;;;7.90;80.97
55263;BME280;41125;48.752;9.168;2023-02-23T00:32:41;96525.84;;;7.89;81.30
55263;BME280;41125;48.752;9.168;2023-02-23T00:33:12;96525.84;;;7.89;82.06
55263;BME280;41125;48.752;9.168;2023-02-23T00:33:43;96524.25;;;7.88;82.27
55263;BME280;41125;48.752;9.168;2023-02-23T00:34:17;96525.59;;;7.86;82.47
55263;BME280;41125;48.752;9.168;2023-02-23T00:34:51;96531.81;;;7.86;82.95
55263;BME280;41125;48.752;9.168;2023-02-23T00:35:23;96526.97;;;7.83;82.34
55263;BME280;41125;48.752;9.168;2023-02-23T00:35:54;96526.97;;;7.83;82.26
55263;BME280;41125;48.752;9.168;2023-02-23T00:36:29;96530.78;;;7.82;82.61
55263;BME280;41125;48.752;9.168;2023-02-23T00:37:00;96523.75;;;7.81;83.48
55263;BME280;41125;48.752;9.168;2023-02-23T00:37:31;96531.06;;;7.81;83.85
55263;BME280;41125;48.752;9.168;2023-02-23T00:38:03;96525.94;;;7.79;84.88
55263;BME280;41125;48.752;9.168;2023-02-23T00:38:34;96528.09;;;7.77;83.96
55263;BME280;41125;48.752;9.168;2023-02-23T00:39:09;96525.69;;;7.76;83.05
55263;BME280;41125;48.752;9.168;2023-02-23T00:39:54;96529.19;;;7.76;83.32
55263;BME280;41125;48.752;9.168;2023-02-23T00:40:26;96531.91;;;7.76;82.94
55263;BME280;41125;48.752;9.168;2023-02-23T00:40:58;96529.19;;;7.76;83.23
55263;BME280;41125;48.752;9.168;2023-02-23T00:41:30;96529.19;;;7.76;84.00
55263;BME280;41125;48.752;9.168;2023-02-23T00:42:01;96524.87;;;7.75;86.42
55263;BME280;41125;48.752;9.168;2023-02-23T00:42:33;96525.16;;;7.73;86.62
55263;BME280;41125;48.752;9.168;2023-02-23T00:43:05;96518.44;;;7.71;85.99
55263;BME280;41125;48.752;9.168;2023-02-23T00:43:39;96527.63;;;7.70;86.29
55263;BME280;41125;48.752;9.168;2023-02-23T00:44:34;96528.19;;;7.67;88.82
55263;BME280;41125;48.752;9.168;2023-02-23T00:45:06;96523.34;;;7.64;88.43
55263;BME280;41125;48.752;9.168;2023-02-23T00:45:43;96527.13;;;7.63;89.42
55263;BME280;41125;48.752;9.168;2023-02-23T00:46:17;96522.31;;;7.60;89.96
55263;BME280;41125;48.752;9.168;2023-02-23T00:46:51;96516.69;;;7.56;90.46
55263;BME280;41125;48.752;9.168;2023-02-23T00:47:23;96518.84;;;7.54;90.72
55263;BME280;41125;48.752;9.168;2023-02-23T00:47:55;96522.94;;;7.52;90.83
55263;BME280;41125;48.752;9.168;2023-02-23T00:48:26;96519.69;;;7.50;90.71
55263;BME280;41125;48.752;9.168;2023-02-23T00:48:58;96523.50;;;7.49;91.03
55263;BME280;41125;48.752;9.168;2023-02-23T00:49:30;96515.38;;;7.49;90.17
55263;BME280;41125;48.752;9.168;2023-02-23T00:50:12;96515.38;;;7.49;89.95
55263;BME280;41125;48.752;9.168;2023-02-23T00:50:57;96517.28;;;7.48;89.17
55263;BME280;41125;48.752;9.168;2023-02-23T00:51:28;96514.59;;;7.48;88.99
55263;BME280;41125;48.752;9.168;2023-02-23T00:52:00;96519.19;;;7.48;89.28
55263;BME280;41125;48.752;9.168;2023-02-23T00:52:32;96519.19;;;7.48;89.45
55263;BME280;41125;48.752;9.168;2023-02-23T00:53:03;96518.37;;;7.47;90.24
55263;BME280;41125;48.752;9.168;2023-02-23T00:53:34;96521.88;;;7.48;90.17
55263;BME280;41125;48.752;9.168;2023-02-23T00:54:06;96512.16;;;7.47;90.06
55263;BME280;41125;48.752;9.168;2023-02-23T00:54:38;96508.94;;;7.45;90.33
55263;BME280;41125;48.752;9.168;2023-02-23T00:55:11;96515.16;;;7.45;89.63
55263;BME280;41125;48.752;9.168;2023-02-23T00:55:42;96510.56;;;7.46;89.85
55263;BME280;41125;48.752;9.168;2023-02-23T00:56:15;96511.63;;;7.45;89.05
55263;BME280;41125;48.752;9.168;2023-02-23T00:56:47;96518.13;;;7.44;88.92
55263;BME280;41125;48.752;9.168;2023-02-23T00:57:18;96513.25;;;7.46;88.73
55263;BME280;41125;48.752;9.168;2023-02-23T00:57:49;96510.56;;;7.46;89.28
55263;BME280;41125;48.752;9.168;2023-02-23T00:58:26;96513.25;;;7.46;90.42
55263;BME280;41125;48.752;9.168;2023-02-23T00:59:00;96508.94;;;7.45;90.76
55263;BME280;41125;48.752;9.168;2023-02-23T00:59:31;96512.72;;;7.44;90.04
55263;BME280;41125;48.752;9.168;2023-02-23T01:00:04;96517.31;;;7.43;89.91
55263;BME280;41125;48.752;9.168;2023-02-23T01:00:48;96514.91;;;7.42;89.51
55263;BME280;41125;48.752;9.168;2023-02-23T01:01:24;96521.09;;;7.42;89.17
55263;BME280;41125;48.752;9.168;2023-02-23T01:01:56;96515.69;;;7.42;89.00
55263;BME280;41125;48.752;9.168;2023-02-23T01:02:27;96511.91;;;7.43;89.29
55263;BME280;41125;48.752;9.168;2023-02-23T01:03:00;96517.31;;;7.43;89.30
55263;BME280;41125;48.752;9.168;2023-02-23T01:03:32;96518.13;;;7.44;90.82
55263;BME280;41125;48.752;9.168;2023-02-23T01:04:04;96514.91;;;7.42;91.41
55263;BME280;41125;48.752;9.168;2023-02-23T01:04:38;96515.97;;;7.40;91.63
55263;BME280;41125;48.752;9.168;2023-02-23T01:05:10;96511.66;;;7.39;91.01
55263;BME280;41125;48.752;9.168;2023-02-23T01:05:41;96520.84;;;7.38;90.28
55263;BME280;41125;48.752;9.168;2023-02-23T01:06:15;96515.47;;;7.38;90.44
55263;BME280;41125;48.752;9.168;2023-02-23T01:06:46;96510.06;;;7.38;90.99
55263;BME280;41125;48.752;9.168;2023-02-23T01:07:17;96514.66;;;7.38;91.90
55263;BME280;41125;48.752;9.168;2023-02-23T01:07:49;96510.34;;;7.37;92.97
55263;BME280;41125;48.752;9.168;2023-02-23T01:08:20;96518.72;;;7.35;93.46
55263;BME280;41125;48.752;9.168;2023-02-23T01:08:52;96509.00;;;7.34;93.13
55263;BME280;41125;48.752;9.168;2023-02-23T01:09:27;96514.41;;;7.34;92.73
55263;BME280;41125;48.752;9.168;2023-02-23T01:09:59;96519.00;;;7.34;93.24
55263;BME280;41125;48.752;9.168;2023-02-23T01:10:31;96518.19;;;7.33;93.17
55263;BME280;41125;48.752;9.168;2023-02-23T01:11:07;96510.37;;;7.32;92.48
55263;BME280;41125;48.752;9.168;2023-02-23T01:11:40;96511.19;;;7.32;92.62
55263;BME280;41125;48.752;9.168;2023-02-23T01:12:11;96507.41;;;7.33;92.85
55263;BME280;41125;48.752;9.168;2023-02-23T01:12:42;96515.50;;;7.33;92.98
55263;BME280;41125;48.752;9.168;2023-02-23T01:13:14;96517.37;;;7.33;92.58
55263;BME280;41125;48.752;9.168;2023-02-23T01:13:45;96511.97;;;7.33;93.24
55263;BME280;41125;48.752;9.168;2023-02-23T01:14:17;96505.78;;;7.32;93.47
55263;BME280;41125;48.752;9.168;2023-02-23T01:14:48;96509.56;;;7.31;92.84
55263;BME280;41125;48.752;9.168;2023-02-23T01:15:21;96510.37;;;7.32;92.94
55263;BME280;41125;48.752;9.168;2023-02-23T01:15:52;96514.97;;;7.31;93.12
55263;BME280;41125;48.752;9.168;2023-02-23T01:16:27;96512.25;;;7.31;92.85
55263;BME280;41125;48.752;9.168;2023-02-23T01:16:59;96509.56;;;7.31;92.32
55263;BME280;41125;48.752;9.168;2023-02-23T01:17:30;96509.56;;;7.31;91.83
55263;BME280;41125;48.752;9.168;2023-02-23T01:18:05;96509.56;;;7.31;91.78
55263;BME280;41125;48.752;9.168;2023-02-23T01:18:38;96518.19;;;7.33;91.65
55263;BME280;41125;48.752;9.168;2023-02-23T01:19:10;96505.22;;;7.35;91.74
55263;BME280;41125;48.752;9.168;2023-02-23T01:19:41;96511.72;;;7.34;91.90
55263;BME280;41125;48.752;9.168;2023-02-23T01:20:14;96514.41;;;7.34;91.60
55263;BME280;41125;48.752;9.168;2023-02-23T01:20:49;96508.72;;;7.36;91.29
55263;BME280;41125;48.752;9.168;2023-02-23T01:21:26;96510.63;;;7.35;91.73
55263;BME280;41125;48.752;9.168;2023-02-23T01:21:58;96513.31;;;7.35;92.55
55263;BME280;41125;48.752;9.168;2023-02-23T01:22:30;96508.72;;;7.36;93.18
55263;BME280;41125;48.752;9.168;2023-02-23T01:23:03;96510.09;;;7.33;93.83
55263;BME280;41125;48.752;9.168;2023-02-23T01:23:35;96511.19;;;7.32;93.41
55263;BME280;41125;48.752;9.168;2023-02-23T01:24:07;96507.69;;;7.32;93.03
55263;BME280;41125;48.752;9.168;2023-02-23T01:24:42;96510.66;;;7.30;92.43
55263;BME280;41125;48.752;9.168;2023-02-23T01:25:14;96507.94;;;7.30;92.35
55263;BME280;41125;48.752;9.168;2023-02-23T01:25:46;96506.88;;;7.31;92.16
55263;BME280;41125;48.752;9.168;2023-02-23T01:26:23;96509.56;;;7.31;92.46
55263;BME280;41125;48.752;9.168;2023-02-23T01:26:55;96509.56;;;7.31;92.14
55263;BME280;41125;48.752;9.168;2023-02-23T01:27:26;96507.94;;;7.30;92.18
55263;BME280;41125;48.752;9.168;2023-02-23T01:27:57;96509.56;;;7.31;92.35
55263;BME280;41125;48.752;9.168;2023-02-23T01:28:28;96506.88;;;7.31;92.96
55263;BME280;41125;48.752;9.168;2023-02-23T01:29:06;96505.25;;;7.30;93.21
55263;BME280;41125;48.752;9.168;2023-02-23T01:29:38;96512.53;;;7.30;93.37
55263;BME280;41125;48.752;9.168;2023-02-23T01:30:13;96511.75;;;7.29;92.86
55263;BME280;41125;48.752;9.168;2023-02-23T01:30:45;96509.03;;;7.29;93.10
55263;BME280;41125;48.752;9.168;2023-02-23T01:31:16;96510.13;;;7.28;92.85
55263;BME280;41125;48.752;9.168;2023-02-23T01:31:48;96509.03;;;7.29;92.79
55263;BME280;41125;48.752;9.168;2023-02-23T01:32:23;96511.75;;;7.29;93.21
55263;BME280;41125;48.752;9.168;2023-02-23T01:32:54;96500.13;;;7.29;93.29
55263;BME280;41125;48.752;9.168;2023-02-23T01:33:25;96502.56;;;7.30;93.65
55263;BME280;41125;48.752;9.168;2023-02-23T01:33:58;96511.75;;;7.29;94.12
55263;BME280;41125;48.752;9.168;2023-02-23T01:34:30;96504.72;;;7.28;93.82
55263;BME280;41125;48.752;9.168;2023-02-23T01:35:04;96504.72;;;7.28;93.14
55263;BME280;41125;48.752;9.168;2023-02-23T01:35:36;96511.75;;;7.29;93.49
55263;BME280;41125;48.752;9.168;2023-02-23T01:36:08;96503.16;;;7.27;93.90
55263;BME280;41125;48.752;9.168;2023-02-23T01:36:41;96505.84;;;7.27;93.53
55263;BME280;41125;48.752;9.168;2023-02-23T01:37:12;96512.81;;;7.28;93.90
55263;BME280;41125;48.752;9.168;2023-02-23T01:37:44;96503.16;;;7.27;93.87
55263;BME280;41125;48.752;9.168;2023-02-23T01:38:15;96504.72;;;7.28;94.10
55263;BME280;41125;48.752;9.168;2023-02-23T01:38:46;96503.91;;;7.28;93.58
55263;BME280;41125;48.752;9.168;2023-02-23T01:39:19;96510.13;;;7.28;93.41
55263;BME280;41125;48.752;9.168;2023-02-23T01:39:53;96504.22;;;7.26;92.91
55263;BME280;41125;48.752;9.168;2023-02-23T01:40:25;96503.91;;;7.28;93.41
55263;BME280;41125;48.752;9.168;2023-02-23T01:41:00;96502.84;;;7.29;93.39
55263;BME280;41125;48.752;9.168;2023-02-23T01:41:31;96503.16;;;7.27;93.62
55263;BME280;41125;48.752;9.168;2023-02-23T01:42:03;96498.53;;;7.28;94.20
55263;BME280;41125;48.752;9.168;2023-02-23T01:42:39;96500.44;;;7.27;93.92
55263;BME280;41125;48.752;9.168;2023-02-23T01:43:14;96500.44;;;7.27;93.91
55263;BME280;41125;48.752;9.168;2023-02-23T01:44:03;96503.16;;;7.27;94.16
55263;BME280;41125;48.752;9.168;2023-02-23T01:45:11;96499.91;;;7.25;93.95
55263;BME280;41125;48.752;9.168;2023-02-23T01:45:47;96503.44;;;7.26;93.49
55263;BME280;41125;48.752;9.168;2023-02-23T01:46:18;96496.13;;;7.26;93.71
55263;BME280;41125;48.752;9.168;2023-02-23T01:46:50;96497.22;;;7.25;93.55
55263;BME280;41125;48.752;9.168;2023-02-23T01:47:23;96496.13;;;7.26;93.31
55263;BME280;41125;48.752;9.168;2023-02-23T01:48:01;96497.75;;;7.27;93.48
55263;BME280;41125;48.752;9.168;2023-02-23T01:48:40;96498.53;;;7.28;93.33
55263;BME280;41125;48.752;9.168;2023-02-23T01:49:18;96493.94;;;7.28;93.52
55263;BME280;41125;48.752;9.168;2023-02-23T01:49:50;96506.34;;;7.29;93.76
55263;BME280;41125;48.752;9.168;2023-02-23T01:50:23;96493.94;;;7.28;93.85
55263;BME280;41125;48.752;9.168;2023-02-23T01:51:15;96498.53;;;7.28;93.50
55263;BME280;41125;48.752;9.168;2023-02-23T01:51:52;96502.03;;;7.28;93.56
55263;BME280;41125;48.752;9.168;2023-02-23T01:52:25;96498.53;;;7.28;93.73
55263;BME280;41125;48.752;9.168;2023-02-23T01:52:58;96495.81;;;7.28;94.01
55263;BME280;41125;48.752;9.168;2023-02-23T01:53:31;96498.53;;;7.28;94.31
55263;BME280;41125;48.752;9.168;2023-02-23T01:54:26;96497.75;;;7.27;94.69
55263;BME280;41125;48.752;9.168;2023-02-23T01:54:58;96490.75;;;7.26;94.23
55263;BME280;41125;48.752;9.168;2023-02-23T01:55:30;96496.13;;;7.26;94.21
55263;BME280;41125;48.752;9.168;2023-02-23T01:56:09;96496.94;;;7.27;94.33
55263;BME280;41125;48.752;9.168;2023-02-23T01:56:46;96489.94;;;7.26;94.52
55263;BME280;41125;48.752;9.168;2023-02-23T01:57:28;96497.75;;;7.27;94.61
55263;BME280;41125;48.752;9.168;2023-02-23T01:58:13;96495.31;;;7.26;95.51
55263;BME280;41125;48.752;9.168;2023-02-23T01:58:47;96492.91;;;7.24;94.80
55263;BME280;41125;48.752;9.168;2023-02-23T01:59:34;96494.53;;;7.25;94.62
55263;BME280;41125;48.752;9.168;2023-02-23T02:00:09;96492.84;;;7.29;94.52
55263;BME280;41125;48.752;9.168;2023-02-23T02:00:52;96489.59;;;7.32;94.33
55263;BME280;41125;48.752;9.168;2023-02-23T02:01:24;96496.59;;;7.33;94.39
55263;BME280;41125;48.752;9.168;2023-02-23T02:01:57;96496.59;;;7.33;94.33
55263;BME280;41125;48.752;9.168;2023-02-23T02:02:30;96491.47;;;7.32;94.69
55263;BME280;41125;48.752;9.168;2023-02-23T02:03:07;96494.19;;;7.32;95.25
55263;BME280;41125;48.752;9.168;2023-02-23T02:03:53;96492.56;;;7.31;96.03
55263;BME280;41125;48.752;9.168;2023-02-23T02:04:26;96487.44;;;7.29;96.09
55263;BME280;41125;48.752;9.168;2023-02-23T02:05:00;96496.63;;;7.28;96.23
55263;BME280;41125;48.752;9.168;2023-02-23T02:05:34;96492.34;;;7.27;96.12
55263;BME280;41125;48.752;9.168;2023-02-23T02:06:09;96492.34;;;7.27;96.61
55263;BME280;41125;48.752;9.168;2023-02-23T02:06:45;96490.75;;;7.26;97.25
55263;BME280;41125;48.752;9.168;2023-02-23T02:07:25;96492.91;;;7.24;96.82
55263;BME280;41125;48.752;9.168;2023-02-23T02:07:58;96488.31;;;7.25;96.05
55263;BME280;41125;48.752;9.168;2023-02-23T02:08:31;96483.72;;;7.25;96.20
55263;BME280;41125;48.752;9.168;2023-02-23T02:09:07;96489.94;;;7.26;96.07
55263;BME280;41125;48.752;9.168;2023-02-23T02:09:41;96491.03;;;7.25;95.82
55263;BME280;41125;48.752;9.168;2023-02-23T02:10:33;96493.72;;;7.25;96.24
55263;BME280;41125;48.752;9.168;2023-02-23T02:11:15;96489.13;;;7.25;96.30
55263;BME280;41125;48.752;9.168;2023-02-23T02:12:10;96492.34;;;7.27;95.44
55263;BME280;41125;48.752;9.168;2023-02-23T02:12:44;96492.34;;;7.27;95.59
55263;BME280;41125;48.752;9.168;2023-02-23T02:13:19;96483.12;;;7.28;95.72
55263;BME280;41125;48.752;9.168;2023-02-23T02:13:58;96490.16;;;7.29;95.51
55263;BME280;41125;48.752;9.168;2023-02-23T02:14:30;96483.66;;;7.30;95.50
55263;BME280;41125;48.752;9.168;2023-02-23T02:15:05;96488.78;;;7.32;94.97
55263;BME280;41125;48.752;9.168;2023-02-23T02:15:49;96493.38;;;7.31;94.72
55263;BME280;41125;48.752;9.168;2023-02-23T02:16:46;96491.47;;;7.32;94.91
55263;BME280;41125;48.752;9.168;2023-02-23T02:17:49;96491.47;;;7.32;95.48
55263;BME280;41125;48.752;9.168;2023-02-23T02:24:25;96487.69;;;7.33;94.79
55263;BME280;41125;48.752;9.168;2023-02-23T02:25:29;96488.50;;;7.33;95.14
55263;BME280;41125;48.752;9.168;2023-02-23T02:26:33;96483.09;;;7.33;96.70
55263;BME280;41125;48.752;9.168;2023-02-23T02:31:50;96483.62;;;7.35;96.00
55263;BME280;41125;48.752;9.168;2023-02-23T02:34:17;96480.66;;;7.37;95.84
55263;BME280;41125;48.752;9.168;2023-02-23T02:35:22;96481.19;;;7.39;95.90
55263;BME280;41125;48.752;9.168;2023-02-23T02:36:23;96480.91;;;7.40;95.91
55263;BME280;41125;48.752;9.168;2023-02-23T02:37:24;96473.88;;;7.39;97.15
55263;BME280;41125;48.752;9.168;2023-02-23T02:40:57;96475.94;;;7.53;96.41
55263;BME280;41125;48.752;9.168;2023-02-23T02:41:46;96472.16;;;7.54;96.32
55263;BME280;41125;48.752;9.168;2023-02-23T02:42:36;96473.81;;;7.50;95.93
55263;BME280;41125;48.752;9.168;2023-02-23T02:43:18;96475.97;;;7.48;96.46
55263;BME280;41125;48.752;9.168;2023-02-23T02:45:04;96479.25;;;7.45;96.39
55263;BME280;41125;48.752;9.168;2023-02-23T02:45:49;96471.16;;;7.45;96.32
55263;BME280;41125;48.752;9.168;2023-02-23T02:46:29;96478.16;;;7.46;96.23
55263;BME280;41125;48.752;9.168;2023-02-23T02:47:09;96477.06;;;7.47;96.12
55263;BME280;41125;48.752;9.168;2023-02-23T02:47:48;96473.53;;;7.51;96.12
55263;BME280;41125;48.752;9.168;2023-02-23T02:49:56;96468.66;;;7.53;95.34
55263;BME280;41125;48.752;9.168;2023-02-23T02:51:06;96473.78;;;7.55;95.52
55263;BME280;41125;48.752;9.168;2023-02-23T02:51:59;96465.44;;;7.51;95.53
55263;BME280;41125;48.752;9.168;2023-02-23T02:52:45;96471.09;;;7.50;95.47
55263;BME280;41125;48.752;9.168;2023-02-23T02:54:32;96473.84;;;7.45;96.68
55263;BME280;41125;48.752;9.168;2023-02-23T02:55:20;96465.22;;;7.43;96.94
55263;BME280;41125;48.752;9.168;2023-02-23T02:55:55;96465.22;;;7.43;96.49
55263;BME280;41125;48.752;9.168;2023-02-23T02:56:30;96462.53;;;7.43;96.56
55263;BME280;41125;48.752;9.168;2023-02-23T02:57:04;96472.50;;;7.42;96.16
55263;BME280;41125;48.752;9.168;2023-02-23T02:57:37;96473.31;;;7.43;96.07
55263;BME280;41125;48.752;9.168;2023-02-23T02:58:11;96473.31;;;7.43;96.21
55263;BME280;41125;48.752;9.168;2023-02-23T02:58:43;96473.31;;;7.43;96.54
55263;BME280;41125;48.752;9.168;2023-02-23T02:59:17;96463.34;;;7.43;96.19
55263;BME280;41125;48.752;9.168;2023-02-23T03:00:07;96465.75;;;7.45;96.61
55263;BME280;41125;48.752;9.168;2023-02-23T03:01:11;96467.38;;;7.46;96.14
55263;BME280;41125;48.752;9.168;2023-02-23T03:02:03;96466.84;;;7.44;95.98
55263;BME280;41125;48.752;9.168;2023-02-23T03:02:52;96470.34;;;7.44;96.32
55263;BME280;41125;48.752;9.168;2023-02-23T03:03:44;96464.13;;;7.44;96.24
55263;BME280;41125;48.752;9.168;2023-02-23T03:04:34;96471.72;;;7.42;96.63
55263;BME280;41125;48.752;9.168;2023-02-23T03:05:42;96472.28;;;7.38;96.68
55263;BME280;41125;48.752;9.168;2023-02-23T03:06:46;96471.47;;;7.38;97.09
55263;BME280;41125;48.752;9.168;2023-02-23T03:07:56;96466.34;;;7.36;97.04
55263;BME280;41125;48.752;9.168;2023-02-23T03:09:00;96469.00;;;7.42;96.79
55263;BME280;41125;48.752;9.168;2023-02-23T03:09:55;96467.91;;;7.43;96.44
55263;BME280;41125;48.752;9.168;2023-02-23T03:10:54;96467.91;;;7.43;96.59
55263;BME280;41125;48.752;9.168;2023-02-23T03:12:10;96477.91;;;7.42;96.46
55263;BME280;41125;48.752;9.168;2023-02-23T03:13:30;96466.56;;;7.45;96.61
55263;BME280;41125;48.752;9.168;2023-02-23T03:14:39;96467.38;;;7.46;96.52
55263;BME280;41125;48.752;9.168;2023-02-23T03:17:31;96470.63;;;7.43;96.35
55263;BME280;41125;48.752;9.168;2023-02-23T03:21:15;96467.62;;;7.44;96.60
55263;BME280;41125;48.752;9.168;2023-02-23T03:22:52;96468.50;;;7.39;97.42
55263;BME280;41125;48.752;9.168;2023-02-23T03:27:22;96469.03;;;7.36;96.84
55263;BME280;41125;48.752;9.168;2023-02-23T03:28:21;96471.72;;;7.42;96.99
55263;BME280;41125;48.752;9.168;2023-02-23T03:29:30;96468.97;;;7.47;96.66
55263;BME280;41125;48.752;9.168;2023-02-23T03:30:45;96478.97;;;7.46;96.44
55263;BME280;41125;48.752;9.168;2023-02-23T03:33:28;96475.50;;;7.40;96.66
55263;BME280;41125;48.752;9.168;2023-02-23T03:34:27;96473.88;;;7.39;96.89
55263;BME280;41125;48.752;9.168;2023-02-23T03:35:26;96479.28;;;7.39;96.92
55263;BME280;41125;48.752;9.168;2023-02-23T03:36:25;96473.06;;;7.39;96.44
55263;BME280;41125;48.752;9.168;2023-02-23T03:37:26;96475.50;;;7.40;96.89
55263;BME280;41125;48.752;9.168;2023-02-23T03:39:46;96477.66;;;7.38;96.72
55263;BME280;41125;48.752;9.168;2023-02-23T03:40:41;96476.06;;;7.37;96.46
55263;BME280;41125;48.752;9.168;2023-02-23T03:41:33;96473.34;;;7.37;96.76
55263;BME280;41125;48.752;9.168;2023-02-23T03:42:28;96479.28;;;7.39;96.78
55263;BME280;41125;48.752;9.168;2023-02-23T03:43:33;96469.28;;;7.40;96.81
55263;BME280;41125;48.752;9.168;2023-02-23T03:44:35;96473.88;;;7.39;96.41
55263;BME280;41125;48.752;9.168;2023-02-23T03:45:27;96472.56;;;7.37;96.75
55263;BME280;41125;48.752;9.168;2023-02-23T03:46:19;96471.22;;;7.34;97.23
55263;BME280;41125;48.752;9.168;2023-02-23T03:47:11;96475.81;;;7.34;97.23
55263;BME280;41125;48.752;9.168;2023-02-23T03:48:05;96475.81;;;7.34;96.82
55263;BME280;41125;48.752;9.168;2023-02-23T03:48:58;96478.50;;;7.34;96.87
55263;BME280;41125;48.752;9.168;2023-02-23T03:49:50;96469.59;;;7.33;96.83
55263;BME280;41125;48.752;9.168;2023-02-23T03:50:44;96475.00;;;7.33;96.84
55263;BME280;41125;48.752;9.168;2023-02-23T03:51:38;96471.50;;;7.33;96.83
55263;BME280;41125;48.752;9.168;2023-02-23T03:52:38;96476.38;;;7.31;96.76
55263;BME280;41125;48.752;9.168;2023-02-23T03:55:00;96473.16;;;7.29;96.71
55263;BME280;41125;48.752;9.168;2023-02-23T03:55:54;96472.34;;;7.28;97.30
55263;BME280;41125;48.752;9.168;2023-02-23T03:56:47;96477.75;;;7.28;97.11
55263;BME280;41125;48.752;9.168;2023-02-23T03:57:41;96476.16;;;7.27;96.86
55263;BME280;41125;48.752;9.168;2023-02-23T03:58:42;96476.66;;;7.29;97.19
55263;BME280;41125;48.752;9.168;2023-02-23T03:59:37;96479.34;;;7.29;97.18
55263;BME280;41125;48.752;9.168;2023-02-23T04:00:35;96482.34;;;7.28;97.25
55263;BME280;41125;48.752;9.168;2023-02-23T04:01:30;96479.34;;;7.29;97.47
55263;BME280;41125;48.752;9.168;2023-02-23T04:02:22;96478.53;;;7.29;97.40